Las Juanitas, Argentina
Current Conditions -  °F | °C
As of 6:00 AM on Sunday 23 Nov 2014 (Local Time) from SAEZ Reporting Station
Clear Clear  
Wind Chill: 63°   Ceiling: Unl
Heat Index: 63°   Visibility: 6mi
Dew Point: 52°   Wind: 6mph
Humidity: 68%   Direction: 340°NNW
Pressure: 29.88"   Gusts: NA
Location:  35.63°S, 61.71°W
Report Text: SAEZ 230900Z 34005KT CAVOK 17/11 Q1012
Loading
Personal Weather Stations






























Interactive Weather Map New forecast layout! Learn more

10-Day Weather Forecast

Advertisements
Track Severe Weather on mobile